Time;durP1;ratioP1;P1;durP2;ratioP2;P2;SDS_P1;SDS_P2;PMS_P1;PMS_P2;Temp;Humidity;BMP_temperature;BMP_pressure;BME280_temperature;BME280_humidity;BME280_pressure;Samples;Min_cycle;Max_cycle;Signal;HPM_P1;HPM_P2
2023/01/30 00:00:22;;;;;;;30.05;13.27;;;;;;;;;;5063457;28;20567;-70
2023/01/30 00:02:47;;;;;;;37.00;15.57;;;;;;;;;;5054594;28;20031;-70
2023/01/30 00:05:12;;;;;;;27.55;9.90;;;;;;;;;;5061717;28;20581;-70
2023/01/30 00:07:38;;;;;;;38.85;14.30;;;;;;;;;;5063965;28;20077;-70
2023/01/30 00:10:04;;;;;;;31.45;11.98;;;;;;;;;;5062942;28;20619;-70
2023/01/30 00:12:29;;;;;;;28.85;9.95;;;;;;;;;;5053965;28;20480;-70
2023/01/30 00:14:54;;;;;;;34.78;16.63;;;;;;;;;;5060851;28;20036;-70
2023/01/30 00:17:19;;;;;;;23.65;9.55;;;;;;;;;;5061198;28;20157;-70
2023/01/30 00:19:45;;;;;;;25.42;11.30;;;;;;;;;;5062605;28;20043;-70
2023/01/30 00:22:10;;;;;;;25.05;9.80;;;;;;;;;;5062952;28;20047;-70
2023/01/30 00:24:35;;;;;;;24.85;10.10;;;;;;;;;;5063490;28;20028;-70
2023/01/30 00:27:01;;;;;;;27.05;10.25;;;;;;;;;;5062700;28;20063;-70
2023/01/30 00:29:26;;;;;;;29.42;10.82;;;;;;;;;;5062590;28;20107;-70
2023/01/30 00:31:51;;;;;;;28.77;11.45;;;;;;;;;;5063963;28;20028;-70
2023/01/30 00:34:16;;;;;;;35.83;15.00;;;;;;;;;;5051219;28;20036;-70
2023/01/30 00:36:42;;;;;;;31.95;13.65;;;;;;;;;;5060294;28;20470;-70
2023/01/30 00:39:07;;;;;;;30.60;12.75;;;;;;;;;;5062994;28;20047;-70
2023/01/30 00:47:07;;;;;;;26.25;9.15;;;;;;;;;;5063498;28;20110;-70
2023/01/30 00:49:34;;;;;;;27.65;9.95;;;;;;;;;;5061382;28;20090;-70
2023/01/30 00:52:00;;;;;;;30.42;10.43;;;;;;;;;;5062909;28;20024;-70
2023/01/30 00:54:25;;;;;;;33.25;10.95;;;;;;;;;;5044100;28;20798;-70
2023/01/30 00:56:50;;;;;;;26.10;9.93;;;;;;;;;;5046333;28;20036;-70
2023/01/30 00:59:15;;;;;;;24.85;10.27;;;;;;;;;;5055711;28;20020;-70
2023/01/30 01:01:41;;;;;;;28.45;11.15;;;;;;;;;;5058603;28;20092;-70
2023/01/30 01:04:09;;;;;;;31.98;11.63;;;;;;;;;;5062473;28;20056;-70
2023/01/30 01:06:35;;;;;;;26.27;10.85;;;;;;;;;;5059693;28;20525;-70
2023/01/30 01:09:01;;;;;;;29.27;11.32;;;;;;;;;;5065489;28;20040;-70
2023/01/30 01:11:26;;;;;;;31.63;12.52;;;;;;;;;;5065765;28;20031;-70
2023/01/30 01:13:57;;;;;;;29.70;11.63;;;;;;;;;;5067015;28;20634;-70
2023/01/30 01:16:23;;;;;;;30.73;11.45;;;;;;;;;;5065920;28;20044;-70
2023/01/30 01:18:49;;;;;;;30.95;12.43;;;;;;;;;;5066239;28;20090;-70
2023/01/30 01:21:15;;;;;;;27.52;12.52;;;;;;;;;;5055162;28;20409;-70
2023/01/30 01:23:40;;;;;;;33.45;12.55;;;;;;;;;;5067074;28;20493;-70
2023/01/30 01:26:06;;;;;;;30.13;11.77;;;;;;;;;;5067591;28;20032;-70
2023/01/30 01:28:31;;;;;;;27.35;10.13;;;;;;;;;;5067940;28;20044;-70
2023/01/30 01:30:56;;;;;;;21.63;10.38;;;;;;;;;;5065346;28;20036;-70
2023/01/30 01:33:28;;;;;;;31.20;12.27;;;;;;;;;;5067792;28;20040;-70
2023/01/30 01:35:56;;;;;;;22.17;9.75;;;;;;;;;;5067849;28;20585;-70
2023/01/30 01:38:22;;;;;;;26.27;9.43;;;;;;;;;;5060181;28;20089;-70
2023/01/30 01:41:04;;;;;;;17.95;7.30;;;;;;;;;;5066021;28;20396;-70
2023/01/30 01:43:33;;;;;;;33.20;11.00;;;;;;;;;;5067721;28;20036;-70
2023/01/30 01:46:28;;;;;;;26.10;10.25;;;;;;;;;;5066479;28;20048;-70
2023/01/30 01:48:56;;;;;;;23.13;8.95;;;;;;;;;;5065984;28;20037;-70
2023/01/30 01:51:30;;;;;;;27.42;10.30;;;;;;;;;;5064030;28;20032;-70
2023/01/30 01:54:04;;;;;;;28.80;9.70;;;;;;;;;;5062786;28;20420;-70
2023/01/30 01:56:32;;;;;;;25.15;9.75;;;;;;;;;;5067184;28;20029;-70
2023/01/30 01:59:02;;;;;;;24.52;9.95;;;;;;;;;;5067203;28;20021;-70
2023/01/30 02:01:28;;;;;;;27.38;10.00;;;;;;;;;;5061702;28;20036;-70
2023/01/30 02:03:57;;;;;;;28.52;11.43;;;;;;;;;;5046946;28;20085;-70
2023/01/30 02:06:23;;;;;;;30.10;9.82;;;;;;;;;;5047057;28;20037;-70
2023/01/30 02:08:53;;;;;;;27.77;10.35;;;;;;;;;;5044616;28;20049;-70
2023/01/30 02:11:43;;;;;;;24.77;9.85;;;;;;;;;;5047492;28;20025;-70
2023/01/30 02:14:10;;;;;;;26.00;10.40;;;;;;;;;;5047821;28;20032;-70
2023/01/30 02:16:36;;;;;;;21.80;9.55;;;;;;;;;;5049166;28;20493;-70
2023/01/30 02:19:06;;;;;;;23.85;8.80;;;;;;;;;;5058788;28;20036;-70
2023/01/30 02:21:58;;;;;;;21.95;9.10;;;;;;;;;;5064995;28;20040;-70
2023/01/30 02:24:27;;;;;;;27.15;9.00;;;;;;;;;;5067028;28;20055;-70
2023/01/30 02:27:13;;;;;;;25.85;10.70;;;;;;;;;;5068014;28;20116;-70
2023/01/30 02:30:16;;;;;;;31.20;11.13;;;;;;;;;;5067219;28;20116;-70
2023/01/30 02:32:59;;;;;;;25.85;9.75;;;;;;;;;;5066250;28;20024;-70
2023/01/30 02:35:36;;;;;;;25.77;9.90;;;;;;;;;;5064489;28;20028;-69
2023/01/30 02:38:20;;;;;;;30.05;9.25;;;;;;;;;;5066480;28;20062;-70
2023/01/30 02:41:07;;;;;;;29.95;11.63;;;;;;;;;;5057924;28;20099;-70
2023/01/30 02:43:39;;;;;;;24.65;9.73;;;;;;;;;;5055895;28;20039;-70
2023/01/30 02:46:12;;;;;;;33.80;9.75;;;;;;;;;;5069769;28;20048;-70
2023/01/30 02:48:46;;;;;;;21.35;8.25;;;;;;;;;;5065891;28;20161;-70
2023/01/30 02:51:20;;;;;;;20.33;7.63;;;;;;;;;;5065676;28;20036;-70
2023/01/30 02:53:47;;;;;;;23.90;9.43;;;;;;;;;;5052344;28;20029;-70
2023/01/30 02:56:12;;;;;;;23.67;8.98;;;;;;;;;;5046762;28;20033;-70
2023/01/30 02:58:43;;;;;;;23.15;9.02;;;;;;;;;;5047045;28;20103;-70
2023/01/30 03:01:28;;;;;;;21.23;8.95;;;;;;;;;;5047932;28;20110;-70
2023/01/30 03:03:53;;;;;;;25.42;10.02;;;;;;;;;;5064579;28;20680;-70
2023/01/30 03:06:21;;;;;;;28.13;10.18;;;;;;;;;;5065991;28;20132;-70
2023/01/30 03:08:58;;;;;;;24.23;9.75;;;;;;;;;;5065470;28;20094;-70
2023/01/30 03:11:31;;;;;;;25.08;10.40;;;;;;;;;;5065922;28;20439;-70
2023/01/30 03:14:20;;;;;;;26.10;11.35;;;;;;;;;;5065213;28;20103;-70
2023/01/30 03:16:48;;;;;;;21.92;8.75;;;;;;;;;;5075970;28;20033;-70
2023/01/30 03:19:13;;;;;;;25.30;10.98;;;;;;;;;;5064558;28;20041;-70
2023/01/30 03:21:41;;;;;;;20.27;8.43;;;;;;;;;;5064856;28;20029;-70
2023/01/30 03:24:06;;;;;;;26.85;10.02;;;;;;;;;;5063412;28;20040;-70
2023/01/30 03:26:36;;;;;;;17.75;7.75;;;;;;;;;;5066281;28;20032;-70
2023/01/30 03:29:02;;;;;;;22.45;10.20;;;;;;;;;;5066691;28;20116;-70
2023/01/30 03:31:27;;;;;;;23.83;9.90;;;;;;;;;;5066457;28;20120;-70
2023/01/30 03:33:52;;;;;;;23.20;8.60;;;;;;;;;;5067003;28;20064;-70
2023/01/30 03:36:18;;;;;;;26.30;10.45;;;;;;;;;;5057362;28;20067;-70
2023/01/30 03:38:43;;;;;;;26.70;9.88;;;;;;;;;;5064376;28;20043;-70
2023/01/30 03:41:08;;;;;;;19.65;8.80;;;;;;;;;;5065506;28;20028;-70
2023/01/30 03:43:34;;;;;;;25.02;8.80;;;;;;;;;;5064680;28;20028;-70
2023/01/30 03:45:59;;;;;;;23.85;9.30;;;;;;;;;;5065104;28;20048;-70
2023/01/30 03:48:24;;;;;;;22.67;8.25;;;;;;;;;;5061017;28;20386;-70
2023/01/30 03:50:50;;;;;;;30.30;10.88;;;;;;;;;;5046320;28;20044;-70
2023/01/30 03:53:15;;;;;;;27.67;10.07;;;;;;;;;;5056891;28;20094;-70
2023/01/30 03:55:40;;;;;;;30.65;9.27;;;;;;;;;;5066293;28;20431;-70
2023/01/30 03:58:06;;;;;;;22.70;9.05;;;;;;;;;;5066745;28;20082;-70
2023/01/30 04:00:31;;;;;;;25.92;9.38;;;;;;;;;;5065802;28;20036;-70
2023/01/30 04:02:57;;;;;;;27.55;10.30;;;;;;;;;;5050309;28;20037;-70
2023/01/30 04:05:23;;;;;;;30.23;11.40;;;;;;;;;;5044187;28;20032;-70
2023/01/30 04:07:50;;;;;;;28.00;10.90;;;;;;;;;;5046565;28;20448;-70
2023/01/30 04:10:17;;;;;;;29.35;10.20;;;;;;;;;;5056543;28;20040;-70
2023/01/30 04:12:42;;;;;;;28.80;9.43;;;;;;;;;;5065278;28;20090;-70
2023/01/30 04:15:08;;;;;;;26.52;10.23;;;;;;;;;;5065593;28;20032;-70
2023/01/30 04:17:34;;;;;;;21.20;9.52;;;;;;;;;;5064338;28;20043;-70
2023/01/30 04:19:59;;;;;;;33.05;10.43;;;;;;;;;;5066899;28;20028;-70
2023/01/30 04:22:24;;;;;;;24.20;9.88;;;;;;;;;;5061504;28;20121;-70
2023/01/30 04:24:49;;;;;;;30.70;11.48;;;;;;;;;;5057403;28;20117;-70
2023/01/30 04:27:15;;;;;;;29.27;10.63;;;;;;;;;;5048406;28;20057;-70
2023/01/30 04:29:41;;;;;;;21.65;8.90;;;;;;;;;;5047626;28;20033;-70
2023/01/30 04:32:06;;;;;;;25.05;10.75;;;;;;;;;;5050154;28;20025;-70
2023/01/30 04:34:32;;;;;;;24.75;10.15;;;;;;;;;;5048461;28;20079;-70
2023/01/30 04:36:57;;;;;;;20.58;8.70;;;;;;;;;;5056177;28;20065;-70
2023/01/30 04:39:22;;;;;;;25.40;9.57;;;;;;;;;;5064836;28;20043;-70
2023/01/30 04:41:47;;;;;;;29.05;10.57;;;;;;;;;;5069721;28;20347;-70
2023/01/30 04:44:13;;;;;;;30.75;9.55;;;;;;;;;;5068156;28;20032;-70
2023/01/30 04:46:38;;;;;;;24.45;8.93;;;;;;;;;;5074950;28;20063;-70
2023/01/30 04:49:03;;;;;;;24.17;9.38;;;;;;;;;;5067462;28;20032;-70
2023/01/30 04:51:28;;;;;;;25.48;8.98;;;;;;;;;;5068063;28;20398;-70
2023/01/30 04:53:54;;;;;;;27.92;9.00;;;;;;;;;;5051928;28;20033;-70
2023/01/30 04:56:19;;;;;;;28.17;8.02;;;;;;;;;;5048336;28;20100;-70
2023/01/30 04:58:44;;;;;;;26.50;8.63;;;;;;;;;;5046831;28;20391;-70
2023/01/30 05:01:31;;;;;;;28.65;8.05;;;;;;;;;;5050093;28;20033;-70
2023/01/30 05:03:56;;;;;;;20.23;7.57;;;;;;;;;;5066657;28;20497;-70
2023/01/30 05:06:22;;;;;;;28.25;9.50;;;;;;;;;;5069784;28;20041;-70
2023/01/30 05:08:49;;;;;;;19.23;7.85;;;;;;;;;;5068407;28;20039;-70
2023/01/30 05:11:14;;;;;;;27.15;9.15;;;;;;;;;;5068325;28;20035;-70
2023/01/30 05:13:39;;;;;;;20.67;7.03;;;;;;;;;;5067594;28;20401;-70
2023/01/30 05:16:05;;;;;;;17.85;6.70;;;;;;;;;;5068542;28;20048;-70
2023/01/30 05:18:30;;;;;;;27.15;8.90;;;;;;;;;;5068274;28;20075;-70
2023/01/30 05:21:03;;;;;;;24.38;8.40;;;;;;;;;;5065058;28;20102;-70
2023/01/30 05:23:29;;;;;;;25.85;9.07;;;;;;;;;;5047621;28;20021;-70
2023/01/30 05:25:55;;;;;;;27.55;9.63;;;;;;;;;;5048007;28;20406;-70
2023/01/30 05:28:20;;;;;;;25.30;8.63;;;;;;;;;;5044497;28;20532;-70
2023/01/30 05:30:45;;;;;;;24.13;9.25;;;;;;;;;;5047201;28;20041;-70
2023/01/30 05:33:10;;;;;;;26.52;9.32;;;;;;;;;;5048175;28;20032;-70
2023/01/30 05:35:36;;;;;;;23.15;8.57;;;;;;;;;;5048365;28;20127;-70
2023/01/30 05:38:02;;;;;;;23.02;7.63;;;;;;;;;;5047060;28;20013;-70
2023/01/30 05:40:27;;;;;;;21.50;8.50;;;;;;;;;;5048215;28;20087;-70
2023/01/30 05:42:53;;;;;;;23.20;9.23;;;;;;;;;;5048000;28;20033;-70
2023/01/30 05:45:18;;;;;;;28.92;9.50;;;;;;;;;;5063625;28;20059;-70
2023/01/30 05:47:43;;;;;;;29.75;9.57;;;;;;;;;;5087232;28;20066;-70
2023/01/30 05:50:09;;;;;;;30.48;10.68;;;;;;;;;;5087588;28;20516;-70
2023/01/30 05:52:35;;;;;;;23.35;7.05;;;;;;;;;;5081246;28;20019;-70
2023/01/30 05:55:00;;;;;;;24.73;9.45;;;;;;;;;;5066119;28;20046;-70
2023/01/30 05:57:25;;;;;;;25.95;9.68;;;;;;;;;;5068246;28;20493;-70
2023/01/30 05:59:50;;;;;;;22.45;8.60;;;;;;;;;;5066524;28;20032;-70
2023/01/30 06:02:16;;;;;;;21.25;8.60;;;;;;;;;;5063386;28;20029;-70
2023/01/30 06:04:41;;;;;;;24.13;8.20;;;;;;;;;;5066403;28;20029;-70
2023/01/30 06:07:06;;;;;;;16.63;7.43;;;;;;;;;;5066529;28;20525;-70
2023/01/30 06:09:32;;;;;;;25.88;9.57;;;;;;;;;;5067766;28;20037;-70
2023/01/30 06:11:57;;;;;;;24.17;9.15;;;;;;;;;;5059356;28;20052;-70
2023/01/30 06:14:22;;;;;;;24.08;8.48;;;;;;;;;;5065012;28;20070;-70
2023/01/30 06:16:48;;;;;;;25.65;9.60;;;;;;;;;;5068177;28;20032;-70
2023/01/30 06:19:13;;;;;;;33.03;10.90;;;;;;;;;;5066993;28;20028;-70
2023/01/30 06:21:38;;;;;;;19.23;7.10;;;;;;;;;;5050213;28;20538;-70
2023/01/30 06:24:04;;;;;;;25.80;9.68;;;;;;;;;;5046167;28;20037;-70
2023/01/30 06:26:29;;;;;;;28.23;9.20;;;;;;;;;;5046511;28;20159;-70
2023/01/30 06:28:54;;;;;;;29.08;9.88;;;;;;;;;;5052141;28;20390;-70
2023/01/30 06:31:20;;;;;;;27.85;10.32;;;;;;;;;;5062223;28;20567;-70
2023/01/30 06:33:45;;;;;;;29.83;9.15;;;;;;;;;;5067137;28;20041;-70
2023/01/30 06:36:10;;;;;;;27.60;9.95;;;;;;;;;;5066779;28;20029;-70
2023/01/30 06:38:36;;;;;;;29.00;10.57;;;;;;;;;;5061021;28;20036;-70
2023/01/30 06:41:01;;;;;;;24.05;9.52;;;;;;;;;;5054729;28;20391;-73
2023/01/30 06:43:26;;;;;;;25.02;8.90;;;;;;;;;;5046603;28;20048;-70
2023/01/30 06:45:52;;;;;;;23.98;8.75;;;;;;;;;;5045657;28;20047;-70
2023/01/30 06:48:17;;;;;;;26.80;7.68;;;;;;;;;;5062205;28;20040;-70
2023/01/30 06:50:45;;;;;;;21.92;7.88;;;;;;;;;;5054298;28;20040;-70
2023/01/30 06:53:10;;;;;;;26.70;8.40;;;;;;;;;;5053766;28;20482;-69
2023/01/30 06:55:36;;;;;;;24.15;9.50;;;;;;;;;;5060709;28;20044;-69
2023/01/30 06:58:07;;;;;;;28.60;8.40;;;;;;;;;;5057953;28;20029;-67
2023/01/30 07:00:34;;;;;;;24.35;8.10;;;;;;;;;;5054586;28;20029;-68
2023/01/30 07:02:59;;;;;;;35.45;10.80;;;;;;;;;;5059308;28;20085;-68
2023/01/30 07:05:25;;;;;;;23.52;8.07;;;;;;;;;;5055849;28;20029;-68
2023/01/30 07:07:50;;;;;;;26.50;8.43;;;;;;;;;;5055554;28;20029;-68
2023/01/30 07:10:16;;;;;;;19.70;8.48;;;;;;;;;;5056269;28;20040;-68
2023/01/30 07:12:41;;;;;;;30.60;8.88;;;;;;;;;;5053438;28;20569;-68
2023/01/30 07:15:08;;;;;;;29.08;11.10;;;;;;;;;;5063311;28;20040;-68
2023/01/30 07:17:33;;;;;;;27.80;8.27;;;;;;;;;;5062569;28;20478;-68
2023/01/30 07:19:58;;;;;;;25.88;8.10;;;;;;;;;;5065179;28;20039;-68
2023/01/30 07:22:24;;;;;;;23.63;8.48;;;;;;;;;;5065241;28;20040;-69
2023/01/30 07:24:49;;;;;;;26.15;7.65;;;;;;;;;;5080831;28;20043;-68
2023/01/30 07:27:16;;;;;;;19.35;7.47;;;;;;;;;;5064342;28;20037;-68
2023/01/30 07:29:41;;;;;;;21.00;8.80;;;;;;;;;;5066003;28;20054;-69
2023/01/30 07:32:12;;;;;;;18.85;7.38;;;;;;;;;;5065196;28;20024;-68
2023/01/30 07:34:38;;;;;;;21.85;7.53;;;;;;;;;;5066598;28;20070;-68
2023/01/30 07:37:03;;;;;;;25.13;8.20;;;;;;;;;;5066040;28;20028;-68
2023/01/30 07:39:29;;;;;;;28.50;9.15;;;;;;;;;;5066333;28;20040;-68
2023/01/30 07:41:54;;;;;;;27.75;8.75;;;;;;;;;;5065999;28;20522;-68
2023/01/30 07:44:19;;;;;;;25.52;8.07;;;;;;;;;;5064639;28;20452;-68
2023/01/30 07:46:45;;;;;;;26.00;8.70;;;;;;;;;;5043415;28;20049;-69
2023/01/30 07:49:10;;;;;;;25.17;7.78;;;;;;;;;;5063129;28;20088;-69
2023/01/30 07:51:35;;;;;;;19.40;7.30;;;;;;;;;;5065829;28;20071;-69
2023/01/30 07:54:02;;;;;;;25.38;7.13;;;;;;;;;;5048902;28;20090;-68
2023/01/30 07:56:28;;;;;;;23.05;7.40;;;;;;;;;;5046324;28;20036;-68
2023/01/30 07:58:54;;;;;;;15.38;5.47;;;;;;;;;;5044696;28;20036;-68
2023/01/30 08:01:20;;;;;;;22.90;8.38;;;;;;;;;;5044449;28;20041;-69
2023/01/30 08:03:48;;;;;;;16.17;6.50;;;;;;;;;;5048015;28;20163;-69
2023/01/30 08:06:14;;;;;;;12.88;4.93;;;;;;;;;;5048921;28;20552;-69
2023/01/30 08:08:39;;;;;;;16.77;5.75;;;;;;;;;;5050297;28;20091;-68
2023/01/30 08:11:05;;;;;;;12.80;4.70;;;;;;;;;;5049322;28;20458;-68
2023/01/30 08:13:30;;;;;;;15.38;4.82;;;;;;;;;;5049435;28;20045;-69
2023/01/30 08:16:02;;;;;;;10.68;4.22;;;;;;;;;;5048898;28;20529;-69
2023/01/30 08:18:28;;;;;;;16.25;7.10;;;;;;;;;;5050049;28;20040;-69
2023/01/30 08:21:02;;;;;;;17.85;6.35;;;;;;;;;;5047423;28;20055;-68
2023/01/30 08:23:27;;;;;;;13.02;5.60;;;;;;;;;;5041110;28;21699;-68
2023/01/30 08:26:01;;;;;;;15.32;5.80;;;;;;;;;;5049321;28;20647;-69
2023/01/30 08:28:27;;;;;;;11.55;4.45;;;;;;;;;;5048332;28;20414;-69
2023/01/30 08:30:53;;;;;;;19.27;5.38;;;;;;;;;;5050370;28;20033;-69
2023/01/30 08:33:19;;;;;;;20.70;5.75;;;;;;;;;;5049408;28;20044;-68
2023/01/30 08:35:45;;;;;;;12.77;4.32;;;;;;;;;;5048311;28;20597;-69
2023/01/30 08:38:10;;;;;;;11.38;4.75;;;;;;;;;;5049708;28;20048;-69
2023/01/30 08:40:36;;;;;;;13.27;4.90;;;;;;;;;;5049903;28;20398;-68
2023/01/30 08:43:02;;;;;;;9.50;4.13;;;;;;;;;;5041836;28;20515;-69
2023/01/30 08:45:27;;;;;;;13.73;4.53;;;;;;;;;;5047800;28;20128;-69
2023/01/30 08:47:56;;;;;;;14.75;3.90;;;;;;;;;;5047171;28;20422;-69
2023/01/30 08:50:21;;;;;;;6.72;2.80;;;;;;;;;;5044971;28;20037;-69
2023/01/30 08:52:46;;;;;;;4.72;1.88;;;;;;;;;;5037378;28;20552;-69
2023/01/30 08:55:12;;;;;;;7.10;2.70;;;;;;;;;;5040696;28;20049;-69
2023/01/30 08:57:37;;;;;;;12.18;3.05;;;;;;;;;;5045670;28;20087;-69
2023/01/30 09:00:03;;;;;;;9.48;2.83;;;;;;;;;;5054857;28;20033;-69
2023/01/30 09:02:28;;;;;;;3.63;2.22;;;;;;;;;;5068666;28;20390;-69
2023/01/30 09:04:54;;;;;;;7.35;3.17;;;;;;;;;;5067671;28;20028;-69
2023/01/30 09:07:19;;;;;;;6.75;2.20;;;;;;;;;;5066690;28;20032;-69
2023/01/30 09:09:44;;;;;;;8.98;2.13;;;;;;;;;;5068737;28;20078;-69
2023/01/30 09:12:10;;;;;;;11.15;2.65;;;;;;;;;;5047799;28;20181;-69
2023/01/30 09:14:35;;;;;;;2.97;1.38;;;;;;;;;;5044690;28;20035;-69
2023/01/30 09:17:00;;;;;;;11.10;2.60;;;;;;;;;;5048924;28;20124;-69
2023/01/30 09:19:27;;;;;;;9.90;1.92;;;;;;;;;;5067289;28;20037;-69
2023/01/30 09:21:53;;;;;;;4.60;1.45;;;;;;;;;;5067509;28;20048;-69
2023/01/30 09:24:20;;;;;;;9.65;2.40;;;;;;;;;;5067706;28;20036;-69
2023/01/30 09:26:46;;;;;;;8.85;2.70;;;;;;;;;;5063346;28;20448;-69
2023/01/30 09:29:11;;;;;;;8.65;3.75;;;;;;;;;;5063459;28;20478;-68
2023/01/30 09:31:38;;;;;;;7.43;2.65;;;;;;;;;;5060366;28;20052;-68
2023/01/30 09:34:03;;;;;;;9.48;2.72;;;;;;;;;;5064417;28;20040;-68
2023/01/30 09:36:28;;;;;;;7.05;2.17;;;;;;;;;;5056591;28;20040;-69
2023/01/30 09:38:54;;;;;;;7.32;2.10;;;;;;;;;;5066958;28;20090;-69
2023/01/30 09:41:41;;;;;;;5.80;1.80;;;;;;;;;;5068704;28;20031;-69
2023/01/30 09:44:31;;;;;;;5.05;1.95;;;;;;;;;;5065704;28;20021;-69
2023/01/30 09:47:29;;;;;;;7.50;1.52;;;;;;;;;;5068413;28;20067;-69
2023/01/30 09:50:33;;;;;;;2.60;1.00;;;;;;;;;;5067491;28;20086;-69
2023/01/30 09:53:01;;;;;;;3.30;1.27;;;;;;;;;;5035710;28;20394;-69
2023/01/30 09:55:28;;;;;;;9.07;1.67;;;;;;;;;;5047904;28;20138;-69
2023/01/30 09:57:56;;;;;;;9.13;2.42;;;;;;;;;;5057909;28;20131;-68
2023/01/30 10:00:25;;;;;;;5.15;0.98;;;;;;;;;;5048763;28;20098;-68
2023/01/30 10:02:59;;;;;;;15.23;3.13;;;;;;;;;;5077966;28;20043;-69
2023/01/30 10:05:35;;;;;;;5.20;1.60;;;;;;;;;;5087775;28;20020;-69
2023/01/30 10:08:04;;;;;;;4.93;2.03;;;;;;;;;;5088782;28;20154;-69
2023/01/30 10:10:33;;;;;;;5.32;1.50;;;;;;;;;;5060843;28;20037;-69
2023/01/30 10:13:36;;;;;;;6.68;2.30;;;;;;;;;;5066884;28;20115;-69
2023/01/30 10:16:23;;;;;;;11.90;2.40;;;;;;;;;;5066479;28;20028;-69
2023/01/30 10:18:58;;;;;;;5.18;1.90;;;;;;;;;;5064956;28;20040;-69
2023/01/30 10:21:58;;;;;;;8.35;2.45;;;;;;;;;;5067990;28;20509;-69
2023/01/30 10:24:32;;;;;;;2.08;1.20;;;;;;;;;;5063256;28;20032;-69
2023/01/30 10:26:58;;;;;;;4.20;1.52;;;;;;;;;;5059460;28;20040;-69
2023/01/30 10:29:36;;;;;;;5.85;1.40;;;;;;;;;;5059086;28;20028;-69
2023/01/30 10:32:18;;;;;;;4.70;1.77;;;;;;;;;;5059089;28;20027;-69
2023/01/30 10:34:50;;;;;;;10.20;2.03;;;;;;;;;;5060824;28;20037;-68
2023/01/30 10:37:32;;;;;;;6.90;1.95;;;;;;;;;;5065694;28;20036;-69
2023/01/30 10:40:12;;;;;;;9.77;2.30;;;;;;;;;;5065948;28;20056;-69
2023/01/30 10:42:47;;;;;;;8.93;1.58;;;;;;;;;;5066927;28;20043;-69
2023/01/30 10:45:20;;;;;;;8.00;1.92;;;;;;;;;;5064491;28;20744;-69
2023/01/30 10:47:59;;;;;;;7.10;1.48;;;;;;;;;;5066918;28;20041;-68
2023/01/30 10:50:49;;;;;;;5.72;1.30;;;;;;;;;;5065842;28;20031;-69
2023/01/30 10:53:31;;;;;;;8.48;1.95;;;;;;;;;;5064812;28;20028;-69
2023/01/30 10:56:34;;;;;;;9.23;2.30;;;;;;;;;;5062497;28;20017;-69
2023/01/30 10:59:10;;;;;;;8.98;1.77;;;;;;;;;;5057351;28;20041;-69
2023/01/30 11:01:42;;;;;;;7.55;1.40;;;;;;;;;;5060916;28;20043;-68
2023/01/30 11:04:39;;;;;;;11.27;1.70;;;;;;;;;;5061547;28;20033;-68
2023/01/30 11:07:05;;;;;;;3.95;1.38;;;;;;;;;;5060646;28;20072;-68
2023/01/30 11:09:41;;;;;;;8.50;1.88;;;;;;;;;;5063230;28;20060;-69
2023/01/30 11:12:06;;;;;;;8.68;1.35;;;;;;;;;;5063222;28;20402;-68
2023/01/30 11:14:52;;;;;;;4.28;1.48;;;;;;;;;;5063505;28;20730;-68
2023/01/30 11:17:19;;;;;;;8.07;1.30;;;;;;;;;;5048641;28;20043;-68
2023/01/30 11:19:44;;;;;;;4.32;1.08;;;;;;;;;;5066135;28;20567;-69
2023/01/30 11:22:13;;;;;;;7.30;1.80;;;;;;;;;;5051091;28;20029;-69
2023/01/30 11:24:44;;;;;;;7.93;2.53;;;;;;;;;;5052967;28;20047;-68
2023/01/30 11:27:29;;;;;;;5.38;1.08;;;;;;;;;;5065096;28;20047;-69
2023/01/30 11:30:16;;;;;;;7.65;1.52;;;;;;;;;;5067097;28;20036;-68
2023/01/30 11:32:49;;;;;;;2.05;0.73;;;;;;;;;;5066172;28;20505;-68
2023/01/30 11:35:14;;;;;;;;;;;;;;;;;;5065537;28;20082;-69
2023/01/30 11:37:42;;;;;;;7.80;1.57;;;;;;;;;;5064582;28;19912;-69
2023/01/30 11:40:16;;;;;;;7.55;1.50;;;;;;;;;;5066764;28;20914;-68
2023/01/30 11:42:57;;;;;;;10.45;1.90;;;;;;;;;;5064110;28;20078;-68
2023/01/30 11:45:25;;;;;;;5.50;1.92;;;;;;;;;;5065645;28;20090;-68
2023/01/30 11:47:57;;;;;;;8.38;1.90;;;;;;;;;;5065764;28;20110;-68
2023/01/30 11:50:30;;;;;;;3.65;0.90;;;;;;;;;;5058957;28;20091;-69
2023/01/30 11:53:02;;;;;;;2.92;1.02;;;;;;;;;;5060837;28;20036;-69
2023/01/30 11:55:34;;;;;;;6.90;1.50;;;;;;;;;;5059649;28;21121;-69
2023/01/30 11:58:08;;;;;;;7.35;1.30;;;;;;;;;;5062398;28;20429;-69
2023/01/30 12:00:42;;;;;;;10.35;1.55;;;;;;;;;;5062031;28;20452;-68
2023/01/30 12:03:11;;;;;;;7.10;1.48;;;;;;;;;;5056499;28;20446;-69
2023/01/30 12:05:41;;;;;;;8.85;1.83;;;;;;;;;;5061633;28;20071;-68
2023/01/30 12:08:12;;;;;;;7.90;1.70;;;;;;;;;;5061096;28;20041;-69
2023/01/30 12:10:42;;;;;;;9.52;1.60;;;;;;;;;;5059308;28;20044;-69
2023/01/30 12:13:23;;;;;;;8.57;1.48;;;;;;;;;;5058556;28;20060;-69
2023/01/30 12:15:54;;;;;;;10.20;1.80;;;;;;;;;;5057371;28;20046;-68
2023/01/30 12:18:26;;;;;;;6.20;1.40;;;;;;;;;;5058162;28;20036;-68
2023/01/30 12:20:58;;;;;;;7.72;1.83;;;;;;;;;;5060019;28;20101;-68
2023/01/30 12:23:45;;;;;;;9.98;1.92;;;;;;;;;;5061448;28;20111;-69
2023/01/30 12:26:37;;;;;;;5.85;1.00;;;;;;;;;;5052477;28;20024;-69
2023/01/30 12:29:23;;;;;;;7.22;1.33;;;;;;;;;;5059702;28;20032;-68
2023/01/30 12:32:00;;;;;;;3.75;0.82;;;;;;;;;;5040279;28;20045;-69
2023/01/30 12:34:26;;;;;;;7.10;1.70;;;;;;;;;;5039901;28;20131;-68
2023/01/30 12:37:02;;;;;;;10.57;1.70;;;;;;;;;;5041785;28;20075;-69
2023/01/30 12:40:00;;;;;;;12.23;1.40;;;;;;;;;;5023663;28;20120;-69
2023/01/30 12:42:34;;;;;;;6.97;1.02;;;;;;;;;;5038416;28;20411;-69
2023/01/30 12:45:22;;;;;;;9.50;2.28;;;;;;;;;;5035694;28;20171;-69
2023/01/30 12:48:04;;;;;;;7.13;1.88;;;;;;;;;;5039637;28;20045;-69
2023/01/30 12:50:42;;;;;;;10.32;1.25;;;;;;;;;;5039410;28;20110;-69
2023/01/30 12:53:29;;;;;;;4.30;1.45;;;;;;;;;;5045024;28;20162;-69
2023/01/30 12:56:00;;;;;;;4.93;1.10;;;;;;;;;;5060204;28;20048;-69
2023/01/30 12:58:25;;;;;;;10.00;1.67;;;;;;;;;;5060358;28;20124;-69
2023/01/30 13:00:57;;;;;;;7.97;1.52;;;;;;;;;;5063668;28;20179;-69
2023/01/30 13:03:29;;;;;;;8.00;1.20;;;;;;;;;;5061636;28;20037;-69
2023/01/30 13:06:22;;;;;;;8.30;1.65;;;;;;;;;;5052241;28;20885;-68
2023/01/30 13:09:06;;;;;;;6.20;1.17;;;;;;;;;;5061655;28;20098;-69
2023/01/30 13:11:56;;;;;;;4.72;1.30;;;;;;;;;;5058120;28;20060;-68
2023/01/30 13:14:38;;;;;;;6.07;1.35;;;;;;;;;;5062236;28;21033;-68
2023/01/30 13:17:37;;;;;;;3.50;1.10;;;;;;;;;;5068243;28;20027;-69
2023/01/30 13:20:27;;;;;;;7.78;1.85;;;;;;;;;;5064600;28;20037;-69
2023/01/30 13:23:03;;;;;;;1.58;1.25;;;;;;;;;;5055927;28;20044;-69
2023/01/30 13:25:41;;;;;;;5.97;1.40;;;;;;;;;;5063428;28;20060;-69
2023/01/30 13:28:14;;;;;;;1.73;0.73;;;;;;;;;;5059833;28;20036;-69
2023/01/30 13:30:41;;;;;;;7.20;1.30;;;;;;;;;;5061271;28;20032;-69
2023/01/30 13:33:19;;;;;;;7.85;1.80;;;;;;;;;;5058272;28;20040;-69
2023/01/30 13:35:51;;;;;;;7.28;1.25;;;;;;;;;;5058305;28;20036;-68
2023/01/30 13:38:24;;;;;;;4.95;1.20;;;;;;;;;;5061585;28;20463;-69
2023/01/30 13:40:52;;;;;;;;;;;;;;;;;;5062368;28;20146;-68
2023/01/30 13:43:22;;;;;;;5.60;1.48;;;;;;;;;;5061885;28;19924;-68
2023/01/30 13:45:50;;;;;;;6.82;2.53;;;;;;;;;;5062944;28;20115;-68
2023/01/30 13:48:38;;;;;;;4.78;0.90;;;;;;;;;;5060056;28;20540;-68
2023/01/30 13:51:38;;;;;;;7.78;1.48;;;;;;;;;;5042919;28;20123;-67
2023/01/30 13:54:28;;;;;;;7.65;1.13;;;;;;;;;;5063547;28;20044;-69
2023/01/30 13:56:59;;;;;;;7.72;2.15;;;;;;;;;;5062559;28;20040;-69
2023/01/30 14:00:02;;;;;;;4.57;1.35;;;;;;;;;;5059229;28;20036;-69
2023/01/30 14:02:27;;;;;;;8.52;1.20;;;;;;;;;;5062943;28;20055;-69
2023/01/30 14:04:55;;;;;;;7.72;1.50;;;;;;;;;;5061936;28;20064;-69
2023/01/30 14:07:25;;;;;;;11.88;2.03;;;;;;;;;;5061390;28;20116;-69
2023/01/30 14:10:07;;;;;;;7.18;1.80;;;;;;;;;;5061645;28;20041;-69
2023/01/30 14:12:40;;;;;;;9.32;1.45;;;;;;;;;;5058400;28;20076;-69
2023/01/30 14:15:27;;;;;;;5.30;1.02;;;;;;;;;;5064528;28;20062;-69
2023/01/30 14:18:14;;;;;;;8.30;1.30;;;;;;;;;;5056374;28;20049;-69
2023/01/30 14:20:44;;;;;;;10.13;1.42;;;;;;;;;;5076013;28;20063;-69
2023/01/30 14:24:02;;;;;;;6.47;1.38;;;;;;;;;;5057072;28;20475;-69
2023/01/30 14:26:49;;;;;;;11.80;1.10;;;;;;;;;;5031582;28;20056;-69
2023/01/30 14:29:42;;;;;;;5.47;1.33;;;;;;;;;;5062739;28;20457;-69
2023/01/30 14:32:59;;;;;;;5.60;2.00;;;;;;;;;;5058839;28;20016;-69
2023/01/30 14:35:33;;;;;;;7.75;2.03;;;;;;;;;;5006146;28;20037;-68
2023/01/30 14:38:05;;;;;;;13.65;2.50;;;;;;;;;;5059518;28;20024;-69
2023/01/30 14:40:33;;;;;;;10.95;1.80;;;;;;;;;;5062630;28;20051;-69
2023/01/30 14:43:19;;;;;;;9.95;2.28;;;;;;;;;;5061034;28;20064;-69
2023/01/30 14:45:50;;;;;;;6.25;1.30;;;;;;;;;;5058903;28;20036;-69
2023/01/30 14:48:40;;;;;;;4.03;1.60;;;;;;;;;;5063421;28;20097;-69
2023/01/30 14:51:25;;;;;;;8.68;1.80;;;;;;;;;;5062205;28;20032;-69
2023/01/30 14:53:54;;;;;;;5.80;1.23;;;;;;;;;;5060066;28;20051;-69
2023/01/30 14:56:45;;;;;;;6.90;1.40;;;;;;;;;;5059521;28;20024;-69
2023/01/30 14:59:25;;;;;;;10.05;1.95;;;;;;;;;;5050542;28;20040;-69
2023/01/30 15:01:55;;;;;;;5.93;1.40;;;;;;;;;;5056036;28;20036;-69